createdAt,value
2022-09-11T00:00:54.276Z,8.73
2022-09-11T00:03:58.564Z,7.90
2022-09-11T00:07:01.114Z,7.70
2022-09-11T00:10:03.819Z,7.72
2022-09-11T00:13:07.332Z,7.50
2022-09-11T00:16:20.565Z,7.22
2022-09-11T00:19:24.564Z,8.23
2022-09-11T00:22:28.173Z,7.27
2022-09-11T00:25:30.774Z,7.22
2022-09-11T00:28:34.543Z,8.15
2022-09-11T00:31:37.370Z,7.60
2022-09-11T00:34:41.477Z,9.73
2022-09-11T00:37:44.115Z,8.07
2022-09-11T00:40:47.693Z,6.63
2022-09-11T00:43:54.402Z,7.22
2022-09-11T00:46:59.505Z,6.30
2022-09-11T00:50:11.013Z,6.83
2022-09-11T00:53:17.950Z,6.97
2022-09-11T00:56:21.829Z,7.00
2022-09-11T00:59:27.091Z,6.47
2022-09-11T01:02:32.754Z,6.25
2022-09-11T01:05:39.317Z,6.73
2022-09-11T01:08:42.222Z,7.67
2022-09-11T01:11:51.972Z,8.80
2022-09-11T01:15:01.660Z,6.95
2022-09-11T01:18:10.540Z,6.43
2022-09-11T01:21:38.789Z,7.10
2022-09-11T01:24:57.305Z,7.60
2022-09-11T01:28:06.345Z,6.57
2022-09-11T01:31:13.004Z,6.65
2022-09-11T01:34:22.859Z,6.15
2022-09-11T01:37:32.149Z,6.30
2022-09-11T01:40:41.592Z,6.70
2022-09-11T01:43:51.332Z,7.65
2022-09-11T01:46:54.909Z,6.93
2022-09-11T01:50:03.566Z,6.95
2022-09-11T01:53:09.775Z,6.23
2022-09-11T01:56:17.922Z,7.30
2022-09-11T01:59:27.999Z,8.07
2022-09-11T02:02:36.144Z,7.60
2022-09-11T02:05:45.926Z,7.78
2022-09-11T02:08:54.288Z,7.20
2022-09-11T02:12:03.694Z,8.30
2022-09-11T02:15:09.137Z,8.50
2022-09-11T02:18:19.175Z,7.72
2022-09-11T02:21:22.082Z,8.48
2022-09-11T02:24:24.866Z,7.93
2022-09-11T02:27:28.698Z,7.67
2022-09-11T02:30:32.863Z,6.78
2022-09-11T02:33:36.998Z,8.73
2022-09-11T02:36:57.549Z,7.25
2022-09-11T02:40:19.566Z,7.20
2022-09-11T02:43:39.022Z,8.50
2022-09-11T02:46:56.880Z,8.45
2022-09-11T02:50:09.990Z,8.30
2022-09-11T02:53:20.325Z,8.00
2022-09-11T02:56:32.568Z,8.87
2022-09-11T02:59:40.919Z,7.33
2022-09-11T03:02:45.411Z,8.00
2022-09-11T03:05:48.857Z,9.68
2022-09-11T03:08:52.479Z,10.18
2022-09-11T03:11:55.100Z,13.23
2022-09-11T03:14:58.529Z,13.83
2022-09-11T03:18:05.129Z,12.18
2022-09-11T03:21:07.812Z,12.20
2022-09-11T03:24:10.851Z,9.45
2022-09-11T03:27:14.323Z,12.30
2022-09-11T03:30:17.142Z,13.17
2022-09-11T03:33:21.179Z,14.48
2022-09-11T03:36:23.805Z,12.80
2022-09-11T03:39:26.486Z,11.73
2022-09-11T03:42:29.150Z,12.07
2022-09-11T03:45:32.370Z,14.60
2022-09-11T03:48:36.467Z,15.00
2022-09-11T03:51:39.084Z,11.68
2022-09-11T03:54:42.271Z,11.10
2022-09-11T03:57:44.825Z,13.33
2022-09-11T04:00:47.984Z,11.13
2022-09-11T04:03:52.047Z,11.23
2022-09-11T04:06:54.579Z,10.27
2022-09-11T04:09:57.331Z,15.27
2022-09-11T04:13:00.103Z,13.83
2022-09-11T04:16:04.842Z,12.83
2022-09-11T04:19:10.631Z,14.60
2022-09-11T04:22:13.321Z,14.13
2022-09-11T04:25:16.186Z,12.10
2022-09-11T04:28:18.774Z,13.33
2022-09-11T04:31:22.424Z,15.93
2022-09-11T04:34:26.572Z,14.55
2022-09-11T04:37:29.375Z,14.88
2022-09-11T04:40:33.291Z,15.63
2022-09-11T04:43:38.112Z,12.38
2022-09-11T04:46:41.057Z,16.35
2022-09-11T04:49:46.874Z,12.25
2022-09-11T04:52:49.534Z,13.60
2022-09-11T04:55:52.180Z,14.07
2022-09-11T04:58:56.888Z,13.63
2022-09-11T05:01:59.991Z,14.20
2022-09-11T05:05:04.452Z,12.02
2022-09-11T05:08:08.236Z,12.27
2022-09-11T05:11:13.528Z,14.30
2022-09-11T05:14:16.149Z,17.27
2022-09-11T05:17:18.897Z,15.15
2022-09-11T05:20:22.931Z,15.30
2022-09-11T05:23:25.719Z,16.98
2022-09-11T05:26:31.088Z,16.50
2022-09-11T05:29:33.657Z,15.13
2022-09-11T05:32:36.340Z,14.93
2022-09-11T05:35:40.778Z,15.13
2022-09-11T05:38:43.989Z,18.20
2022-09-11T05:41:46.682Z,13.73
2022-09-11T05:44:49.365Z,12.52
2022-09-11T05:47:55.933Z,14.52
2022-09-11T05:51:02.141Z,16.67
2022-09-11T05:54:05.419Z,14.60
2022-09-11T05:57:08.170Z,15.07
2022-09-11T06:00:13.259Z,17.88
2022-09-11T06:03:16.374Z,14.93
2022-09-11T06:06:22.925Z,14.38
2022-09-11T06:09:25.700Z,15.88
2022-09-11T06:12:28.349Z,15.93
2022-09-11T06:15:46.117Z,16.73
2022-09-11T06:18:50.409Z,17.23
2022-09-11T06:21:54.434Z,16.75
2022-09-11T06:24:57.036Z,18.30
2022-09-11T06:27:59.732Z,16.93
2022-09-11T06:31:03.292Z,17.75
2022-09-11T06:34:05.991Z,15.82
2022-09-11T06:37:10.123Z,14.25
2022-09-11T06:40:13.237Z,14.27
2022-09-11T06:43:16.137Z,14.97
2022-09-11T06:46:20.597Z,15.23
2022-09-11T06:49:23.694Z,14.25
2022-09-11T06:52:28.088Z,13.77
2022-09-11T06:55:31.672Z,13.82
2022-09-11T06:58:34.677Z,14.37
2022-09-11T07:01:39.798Z,14.57
2022-09-11T07:04:42.525Z,13.77
2022-09-11T07:07:48.605Z,16.85
2022-09-11T07:10:51.300Z,17.55
2022-09-11T07:13:54.812Z,16.27
2022-09-11T07:16:57.421Z,14.85
2022-09-11T07:20:00.122Z,15.40
2022-09-11T07:23:04.044Z,14.38
2022-09-11T07:26:08.945Z,14.75
2022-09-11T07:29:12.816Z,14.80
2022-09-11T07:32:15.603Z,15.48
2022-09-11T07:35:21.829Z,14.17
2022-09-11T07:38:25.758Z,15.02
2022-09-11T07:41:29.590Z,14.05
2022-09-11T07:44:32.160Z,13.60
2022-09-11T07:47:34.788Z,13.37
2022-09-11T07:50:37.331Z,15.10
2022-09-11T07:53:43.159Z,14.32
2022-09-11T07:56:45.799Z,15.60
2022-09-11T07:59:48.403Z,15.05
2022-09-11T08:02:51.079Z,14.67
2022-09-11T08:05:59.360Z,15.40
2022-09-11T08:09:06.214Z,16.35
2022-09-11T08:12:09.126Z,16.30
2022-09-11T08:15:11.744Z,16.98
2022-09-11T08:18:14.716Z,13.80
2022-09-11T08:21:17.568Z,16.47
2022-09-11T08:24:21.650Z,15.88
2022-09-11T08:27:24.235Z,14.90
2022-09-11T08:30:26.932Z,14.25
2022-09-11T08:33:29.627Z,15.97
2022-09-11T08:36:32.235Z,14.07
2022-09-11T08:39:36.973Z,13.70
2022-09-11T08:42:41.854Z,14.82
2022-09-11T08:45:45.179Z,15.77
2022-09-11T08:48:55.731Z,13.20
2022-09-11T08:52:02.652Z,12.97
2022-09-11T08:55:12.993Z,12.52
2022-09-11T08:58:22.094Z,13.10
2022-09-11T09:01:29.136Z,11.80
2022-09-11T09:04:45.594Z,13.77
2022-09-11T09:08:02.382Z,14.20
2022-09-11T09:11:15.870Z,13.82
2022-09-11T09:14:33.060Z,13.38
2022-09-11T09:17:42.539Z,14.30
2022-09-11T09:20:50.632Z,11.47
2022-09-11T09:23:56.582Z,12.27
2022-09-11T09:27:05.037Z,12.77
2022-09-11T09:30:16.264Z,13.30
2022-09-11T09:33:30.915Z,12.25
2022-09-11T09:36:37.639Z,13.07
2022-09-11T09:39:41.064Z,12.53
2022-09-11T09:42:59.434Z,11.23
2022-09-11T09:46:16.762Z,11.98
2022-09-11T09:49:23.226Z,12.32
2022-09-11T09:52:28.290Z,11.20
2022-09-11T09:55:31.512Z,11.63
2022-09-11T09:58:41.785Z,9.77
2022-09-11T10:01:47.240Z,10.95
2022-09-11T10:05:08.702Z,10.05
2022-09-11T10:08:29.171Z,10.67
2022-09-11T10:11:32.387Z,9.87
2022-09-11T10:14:51.639Z,10.48
2022-09-11T10:17:59.994Z,10.43
2022-09-11T10:21:17.174Z,9.93
2022-09-11T10:24:23.540Z,11.50
2022-09-11T10:27:29.031Z,10.93
2022-09-11T10:30:36.112Z,10.50
2022-09-11T10:33:41.062Z,10.40
2022-09-11T10:36:53.751Z,8.95
2022-09-11T10:40:06.704Z,8.87
2022-09-11T10:43:24.677Z,9.83
2022-09-11T10:46:39.557Z,12.02
2022-09-11T10:49:43.375Z,10.13
2022-09-11T10:52:50.966Z,9.30
2022-09-11T10:56:00.473Z,10.10
2022-09-11T10:59:11.435Z,8.43
2022-09-11T11:02:31.648Z,9.18
2022-09-11T11:05:45.410Z,8.73
2022-09-11T11:09:21.140Z,10.25
2022-09-11T11:12:40.341Z,9.07
2022-09-11T11:15:57.720Z,7.67
2022-09-11T11:19:18.845Z,9.77
2022-09-11T11:22:36.814Z,7.95
2022-09-11T11:25:47.985Z,7.30
2022-09-11T11:29:09.052Z,8.18
2022-09-11T11:32:27.841Z,8.23
2022-09-11T11:35:41.947Z,7.27
2022-09-11T11:38:52.858Z,9.90
2022-09-11T11:42:07.186Z,8.05
2022-09-11T11:45:17.888Z,8.48
2022-09-11T11:48:26.624Z,8.23
2022-09-11T11:51:35.858Z,7.90
2022-09-11T11:54:42.969Z,7.70
2022-09-11T11:57:55.284Z,7.32
2022-09-11T12:01:02.367Z,7.30
2022-09-11T12:04:19.084Z,8.40
2022-09-11T12:07:26.296Z,6.90
2022-09-11T12:10:33.303Z,7.32
2022-09-11T12:13:42.856Z,7.95
2022-09-11T12:16:48.665Z,6.90
2022-09-11T12:20:31.841Z,7.63
2022-09-11T12:23:56.712Z,7.00
2022-09-11T12:27:48.776Z,7.00
2022-09-11T12:31:07.234Z,7.75
2022-09-11T12:34:17.369Z,7.38
2022-09-11T12:37:28.509Z,8.20
2022-09-11T12:40:37.619Z,6.80
2022-09-11T12:43:49.071Z,6.22
2022-09-11T12:47:18.603Z,7.43
2022-09-11T12:50:25.772Z,8.93
2022-09-11T12:53:32.478Z,8.10
2022-09-11T12:56:36.031Z,8.03
2022-09-11T12:59:41.465Z,7.78
2022-09-11T13:02:51.842Z,8.20
2022-09-11T13:05:56.435Z,8.00
2022-09-11T13:09:02.191Z,7.40
2022-09-11T13:12:48.899Z,8.40
2022-09-11T13:15:53.060Z,6.97
2022-09-11T13:19:02.994Z,6.90
2022-09-11T13:22:22.159Z,8.63
2022-09-11T13:25:26.607Z,7.73
2022-09-11T13:28:31.774Z,8.20
2022-09-11T13:31:36.156Z,7.68
2022-09-11T13:34:44.456Z,6.75
2022-09-11T13:37:59.584Z,5.65
2022-09-11T13:41:06.142Z,6.90
2022-09-11T13:44:11.965Z,6.20
2022-09-11T13:47:20.171Z,6.32
2022-09-11T13:50:24.405Z,6.90
2022-09-11T13:53:28.400Z,7.53
2022-09-11T13:56:45.301Z,7.33
2022-09-11T13:59:50.148Z,7.23
2022-09-11T14:02:52.883Z,6.85
2022-09-11T14:06:00.009Z,6.15
2022-09-11T14:09:03.674Z,5.95
2022-09-11T14:12:07.586Z,6.23
2022-09-11T14:15:20.405Z,7.43
2022-09-11T14:18:29.745Z,7.32
2022-09-11T14:21:35.400Z,5.88
2022-09-11T14:24:38.721Z,6.88
2022-09-11T14:27:44.709Z,6.40
2022-09-11T14:31:06.698Z,5.57
2022-09-11T14:34:17.786Z,5.90
2022-09-11T14:37:22.803Z,6.47
2022-09-11T14:40:25.453Z,5.82
2022-09-11T14:43:32.764Z,5.40
2022-09-11T14:46:35.398Z,8.13
2022-09-11T14:49:38.115Z,6.78
2022-09-11T14:52:42.723Z,7.82
2022-09-11T14:55:45.346Z,6.00
2022-09-11T14:58:48.786Z,6.63
2022-09-11T15:01:52.549Z,7.20
2022-09-11T15:04:57.487Z,6.88
2022-09-11T15:08:01.818Z,8.10
2022-09-11T15:11:04.431Z,6.95
2022-09-11T15:14:20.777Z,7.30
2022-09-11T15:17:31.857Z,6.17
2022-09-11T15:20:34.853Z,6.10
2022-09-11T15:23:39.062Z,6.40
2022-09-11T15:26:41.891Z,6.65
2022-09-11T15:29:45.380Z,6.20
2022-09-11T15:32:48.596Z,6.57
2022-09-11T15:35:51.946Z,6.18
2022-09-11T15:38:56.193Z,5.13
2022-09-11T15:45:22.646Z,5.00
2022-09-11T15:48:26.811Z,5.30
2022-09-11T15:51:29.921Z,5.22
2022-09-11T15:54:34.035Z,5.03
2022-09-11T15:57:36.737Z,4.67
2022-09-11T16:00:39.904Z,4.60
2022-09-11T16:03:42.571Z,5.30
2022-09-11T16:06:47.671Z,4.70
2022-09-11T16:09:51.741Z,5.00
2022-09-11T16:12:58.705Z,4.97
2022-09-11T16:16:04.009Z,4.28
2022-09-11T16:19:06.784Z,4.60
2022-09-11T16:22:09.929Z,4.33
2022-09-11T16:25:13.991Z,4.97
2022-09-11T16:28:16.525Z,4.38
2022-09-11T16:31:19.288Z,4.25
2022-09-11T16:34:21.870Z,4.22
2022-09-11T16:37:24.656Z,3.83
2022-09-11T16:40:28.571Z,3.55
2022-09-11T16:43:31.688Z,4.35
2022-09-11T16:46:34.541Z,4.47
2022-09-11T16:50:03.385Z,4.50
2022-09-11T16:53:00.194Z,4.97
2022-09-11T16:56:08.185Z,4.13
2022-09-11T16:59:10.995Z,4.75
2022-09-11T17:02:13.586Z,4.10
2022-09-11T17:05:18.048Z,3.90
2022-09-11T17:08:30.962Z,4.68
2022-09-11T17:11:34.953Z,3.60
2022-09-11T17:14:37.511Z,4.60
2022-09-11T17:17:41.361Z,4.43
2022-09-11T17:20:44.502Z,3.95
2022-09-11T17:23:47.272Z,4.97
2022-09-11T17:26:51.182Z,4.53
2022-09-11T17:29:53.959Z,5.07
2022-09-11T17:32:57.299Z,4.22
2022-09-11T17:36:01.334Z,4.68
2022-09-11T17:39:04.958Z,5.00
2022-09-11T17:42:13.034Z,5.20
2022-09-11T17:45:16.547Z,7.10
2022-09-11T17:48:19.362Z,8.00
2022-09-11T17:51:24.909Z,7.95
2022-09-11T17:54:28.474Z,6.57
2022-09-11T17:57:32.838Z,6.77
2022-09-11T18:00:35.696Z,6.60
2022-09-11T18:03:38.590Z,6.45
2022-09-11T18:06:42.607Z,6.57
2022-09-11T18:09:45.894Z,6.40
2022-09-11T18:12:49.965Z,5.83
2022-09-11T18:15:52.533Z,6.80
2022-09-11T18:18:55.484Z,6.43
2022-09-11T18:21:59.745Z,6.13
2022-09-11T18:25:02.398Z,7.17
2022-09-11T18:28:07.037Z,6.87
2022-09-11T18:31:09.933Z,6.32
2022-09-11T18:34:15.045Z,6.50
2022-09-11T18:37:18.273Z,6.50
2022-09-11T18:40:20.917Z,5.70
2022-09-11T18:43:25.110Z,6.33
2022-09-11T18:46:28.079Z,5.43
2022-09-11T18:49:30.836Z,6.30
2022-09-11T18:52:33.627Z,9.77
2022-09-11T18:55:37.280Z,9.73
2022-09-11T18:58:41.804Z,10.73
2022-09-11T19:01:44.721Z,10.68
2022-09-11T19:04:47.333Z,10.00
2022-09-11T19:07:50.380Z,9.95
2022-09-11T19:10:53.173Z,9.00
2022-09-11T19:14:03.284Z,8.33
2022-09-11T19:17:05.866Z,7.20
2022-09-11T19:20:11.178Z,6.35
2022-09-11T19:23:13.767Z,6.30
2022-09-11T19:26:18.188Z,6.37
2022-09-11T19:29:22.605Z,6.40
2022-09-11T19:32:25.520Z,6.60
2022-09-11T19:35:28.073Z,5.60
2022-09-11T19:38:32.398Z,6.35
2022-09-11T19:41:37.673Z,6.03
2022-09-11T19:44:42.279Z,6.27
2022-09-11T19:47:47.999Z,5.82
2022-09-11T19:50:50.779Z,5.78
2022-09-11T19:53:55.965Z,5.50
2022-09-11T19:57:00.279Z,6.93
2022-09-11T20:00:05.723Z,6.93
2022-09-11T20:03:10.470Z,5.72
2022-09-11T20:06:16.949Z,6.68
2022-09-11T20:09:31.001Z,6.75
2022-09-11T20:12:37.060Z,6.10
2022-09-11T20:15:42.867Z,6.83
2022-09-11T20:18:45.663Z,6.35
2022-09-11T20:21:48.397Z,5.88
2022-09-11T20:24:51.125Z,6.43
2022-09-11T20:27:53.850Z,6.93
2022-09-11T20:30:57.870Z,6.03
2022-09-11T20:34:01.051Z,6.32
2022-09-11T20:37:08.148Z,5.50
2022-09-11T20:40:13.206Z,6.43
2022-09-11T20:43:15.938Z,5.63
2022-09-11T20:46:20.110Z,5.50
2022-09-11T20:49:22.680Z,6.35
2022-09-11T20:52:25.272Z,5.50
2022-09-11T20:55:28.016Z,5.60
2022-09-11T20:58:30.764Z,6.03
2022-09-11T21:01:35.900Z,5.63
2022-09-11T21:04:39.174Z,5.70
2022-09-11T21:07:42.033Z,6.30
2022-09-11T21:10:44.671Z,6.05
2022-09-11T21:13:47.594Z,5.07
2022-09-11T21:16:53.056Z,6.43
2022-09-11T21:19:57.499Z,6.43
2022-09-11T21:23:00.297Z,5.72
2022-09-11T21:26:03.435Z,6.13
2022-09-11T21:29:08.222Z,6.00
2022-09-11T21:32:12.406Z,5.87
2022-09-11T21:35:15.087Z,6.53
2022-09-11T21:38:17.760Z,5.90
2022-09-11T21:41:20.456Z,7.53
2022-09-11T21:44:23.151Z,6.30
2022-09-11T21:47:27.067Z,5.90
2022-09-11T21:50:29.972Z,5.88
2022-09-11T21:53:32.606Z,6.00
2022-09-11T21:56:35.648Z,6.43
2022-09-11T21:59:38.314Z,6.33
2022-09-11T22:02:42.395Z,6.37
2022-09-11T22:05:47.637Z,6.05
2022-09-11T22:08:50.793Z,6.35
2022-09-11T22:11:55.732Z,5.07
2022-09-11T22:15:02.182Z,5.60
2022-09-11T22:18:06.289Z,5.63
2022-09-11T22:21:10.197Z,6.10
2022-09-11T22:24:12.751Z,5.35
2022-09-11T22:27:15.515Z,5.00
2022-09-11T22:30:18.298Z,5.57
2022-09-11T22:33:22.842Z,5.10
2022-09-11T22:36:28.322Z,4.97
2022-09-11T22:39:31.847Z,4.85
2022-09-11T22:42:34.527Z,4.88
2022-09-11T22:45:37.467Z,3.88
2022-09-11T22:48:44.401Z,4.45
2022-09-11T22:51:47.112Z,4.97
2022-09-11T22:54:49.715Z,4.35
2022-09-11T22:57:52.863Z,4.28
2022-09-11T23:00:56.502Z,4.15
2022-09-11T23:04:00.615Z,3.83
2022-09-11T23:07:17.256Z,3.47
2022-09-11T23:10:24.254Z,3.92
2022-09-11T23:13:27.259Z,3.97
2022-09-11T23:16:30.897Z,3.47
2022-09-11T23:19:35.940Z,5.00
2022-09-11T23:22:38.796Z,3.20
2022-09-11T23:25:43.090Z,4.43
2022-09-11T23:28:46.540Z,3.90
2022-09-11T23:31:49.251Z,4.40
2022-09-11T23:34:54.353Z,4.57
2022-09-11T23:37:56.911Z,3.90
2022-09-11T23:40:59.743Z,4.00
2022-09-11T23:44:03.514Z,4.00
2022-09-11T23:47:06.358Z,3.42
2022-09-11T23:50:10.810Z,3.58
2022-09-11T23:53:13.476Z,2.80
2022-09-11T23:56:16.589Z,3.75
2022-09-11T23:59:19.433Z,3.50
